El Rito, Colorado
Current Conditions -  °F | °C
As of 9:32 AM on Wednesday 22 Oct 2014 (Local Time) from KVTP Reporting Station
Clear Clear  
Wind Chill: 38°   Ceiling: Unl
Heat Index: 43°   Visibility: 10mi
Dew Point: 34°   Wind: 8mph
Humidity: 70%   Direction: 200°SSW
Pressure: 30.34"   Gusts: NA
Location:  37.1568°N, 105.289°W
Report Text: KVTP 221532Z AUTO 20007KT 170V280 10SM CLR 06/01 A3034 RMK AO2
Loading
Personal Weather Stations






























Interactive Weather Map
Tropical Storm Tracking
New forecast layout! Learn more

10-Day Weather Forecast

Advertisements
Track Severe Weather on mobile